Time;durP1;ratioP1;P1;durP2;ratioP2;P2;SDS_P1;SDS_P2;PMS_P1;PMS_P2;Temp;Humidity;BMP_temperature;BMP_pressure;BME280_temperature;BME280_humidity;BME280_pressure;Samples;Min_cycle;Max_cycle;Signal;HPM_P1;HPM_P2
2022/03/31 00:02:10;;;;;;;;;;;;;;;21.88;48.89;168255.81;6299112;22;20326;-92
2022/03/31 00:04:38;;;;;;;;;;;;;;;21.88;48.88;168255.81;6300114;22;19930;-92
2022/03/31 00:07:04;;;;;;;;;;;;;;;21.87;48.69;168253.09;6289780;22;20194;-93
2022/03/31 00:09:31;;;;;;;;;;;;;;;21.88;48.69;168254.44;6302550;22;19919;-92
2022/03/31 00:11:59;;;;;;;;;;;;;;;21.88;48.78;168255.81;6290986;22;20259;-93
2022/03/31 00:14:26;;;;;;;;;;;;;;;21.88;48.73;168254.44;6301790;22;20252;-93
2022/03/31 00:16:52;;;;;;;;;;;;;;;21.87;49.04;168251.66;6301348;22;19938;-93
2022/03/31 00:19:19;;;;;;;;;;;;;;;21.87;48.69;168253.09;6291440;22;20456;-93
2022/03/31 00:21:46;;;;;;;;;;;;;;;21.88;49.07;168254.44;6302142;22;20108;-93
2022/03/31 00:24:12;;;;;;;;;;;;;;;21.87;48.95;168253.09;6289981;22;20244;-92
2022/03/31 00:26:38;;;;;;;;;;;;;;;21.89;48.91;168257.22;6300949;22;20019;-93
2022/03/31 00:29:05;;;;;;;;;;;;;;;21.89;48.88;168257.22;6291067;22;19911;-93
2022/03/31 00:31:31;;;;;;;;;;;;;;;21.87;49.21;168251.66;6300009;22;20134;-92
2022/03/31 00:33:58;;;;;;;;;;;;;;;21.88;49.24;168254.44;6300633;22;19964;-93
2022/03/31 00:36:25;;;;;;;;;;;;;;;21.89;49.32;168257.22;6290130;22;20000;-92
2022/03/31 00:41:37;;;;;;;;;;;;;;;21.86;49.42;168248.94;6292468;22;19926;-93
2022/03/31 00:44:05;;;;;;;;;;;;;;;21.87;49.33;168251.66;6299699;22;20332;-93
2022/03/31 00:46:31;;;;;;;;;;;;;;;21.87;49.48;168251.66;6293130;22;20206;-92
2022/03/31 00:48:58;;;;;;;;;;;;;;;21.88;49.51;168255.81;6301987;22;19918;-93
2022/03/31 00:51:24;;;;;;;;;;;;;;;21.86;49.28;168250.28;6301470;22;19946;-93
2022/03/31 00:53:51;;;;;;;;;;;;;;;21.87;49.34;168251.66;6293698;22;20353;-93
2022/03/31 00:56:21;;;;;;;;;;;;;;;21.87;49.23;168251.66;6301770;22;20006;-92
2022/03/31 00:58:47;;;;;;;;;;;;;;;21.86;49.50;168250.28;6294136;22;19923;-93
2022/03/31 01:01:14;;;;;;;;;;;;;;;21.84;49.60;168243.34;6302308;22;20428;-93
2022/03/31 01:03:41;;;;;;;;;;;;;;;21.85;49.67;168246.13;6303301;22;20032;-93
2022/03/31 01:06:07;;;;;;;;;;;;;;;21.86;49.63;168248.94;6293217;22;19919;-93
2022/03/31 01:08:34;;;;;;;;;;;;;;;21.87;49.45;168251.66;6302791;22;19926;-92
2022/03/31 01:11:00;;;;;;;;;;;;;;;21.87;49.62;168251.66;6290644;22;19969;-93
2022/03/31 01:13:27;;;;;;;;;;;;;;;21.87;49.75;168253.09;6302093;22;19919;-93
2022/03/31 01:15:54;;;;;;;;;;;;;;;21.87;49.50;168251.66;6293139;22;19951;-93
2022/03/31 01:18:21;;;;;;;;;;;;;;;21.86;49.54;168250.28;6300111;22;19980;-93
2022/03/31 01:20:47;;;;;;;;;;;;;;;21.87;49.50;168251.66;6302114;22;19919;-93
2022/03/31 01:23:14;;;;;;;;;;;;;;;21.85;49.46;168246.13;6291820;22;20115;-93
2022/03/31 01:25:41;;;;;;;;;;;;;;;21.87;49.66;168251.66;6301205;22;20202;-92
2022/03/31 01:28:08;;;;;;;;;;;;;;;21.84;49.74;168244.75;6291703;22;19919;-92
2022/03/31 01:30:35;;;;;;;;;;;;;;;21.86;49.61;168248.94;6303021;22;19923;-93
2022/03/31 01:33:02;;;;;;;;;;;;;;;21.86;49.66;168248.94;6301963;22;19919;-93
2022/03/31 01:35:28;;;;;;;;;;;;;;;21.85;49.48;168247.50;6293369;22;20182;-93
2022/03/31 01:37:55;;;;;;;;;;;;;;;21.85;49.64;168247.50;6300661;22;19930;-93
2022/03/31 01:40:21;;;;;;;;;;;;;;;21.85;49.74;168246.13;6291565;22;19991;-92
2022/03/31 01:42:48;;;;;;;;;;;;;;;21.85;49.37;168246.13;6300798;22;20147;-93
2022/03/31 01:45:15;;;;;;;;;;;;;;;21.86;49.66;168248.94;6294621;22;19923;-93
2022/03/31 01:47:42;;;;;;;;;;;;;;;21.85;49.74;168246.13;6300866;22;19930;-93
2022/03/31 01:50:09;;;;;;;;;;;;;;;21.84;49.74;168243.34;6301286;22;20180;-92
2022/03/31 01:52:36;;;;;;;;;;;;;;;21.84;49.65;168244.75;6293286;22;20150;-92
2022/03/31 01:55:04;;;;;;;;;;;;;;;21.84;49.65;168244.75;6301742;22;19930;-92
2022/03/31 01:57:30;;;;;;;;;;;;;;;21.85;49.51;168246.13;6291212;22;19919;-92
2022/03/31 01:59:57;;;;;;;;;;;;;;;21.84;49.67;168244.75;6301063;22;19918;-93
2022/03/31 02:02:23;;;;;;;;;;;;;;;21.85;49.68;168246.13;6304002;22;20542;-93
2022/03/31 02:04:50;;;;;;;;;;;;;;;21.84;49.84;168244.75;6294620;22;19934;-93
2022/03/31 02:07:16;;;;;;;;;;;;;;;21.85;49.76;168246.13;6301675;22;19972;-92
2022/03/31 02:09:43;;;;;;;;;;;;;;;21.84;49.58;168243.34;6294551;22;19951;-93
2022/03/31 02:12:09;;;;;;;;;;;;;;;21.84;49.73;168243.34;6301706;22;19931;-92
2022/03/31 02:14:41;;;;;;;;;;;;;;;21.83;49.82;168240.63;6303466;22;19945;-92
2022/03/31 02:17:08;;;;;;;;;;;;;;;21.84;49.70;168243.34;6294322;22;19919;-93
2022/03/31 02:19:35;;;;;;;;;;;;;;;21.82;50.07;168239.19;6302375;22;20342;-92
2022/03/31 02:22:01;;;;;;;;;;;;;;;21.84;49.93;168243.34;6293863;22;19930;-92
2022/03/31 02:24:28;;;;;;;;;;;;;;;21.84;50.16;168243.34;6303992;22;19973;-93
2022/03/31 02:26:54;;;;;;;;;;;;;;;21.82;49.93;168239.19;6295711;22;19977;-92
2022/03/31 02:29:21;;;;;;;;;;;;;;;21.84;50.19;168243.34;6304446;22;19977;-93
2022/03/31 02:31:53;;;;;;;;;;;;;;;21.82;50.23;168239.19;6302883;22;19955;-92
2022/03/31 02:34:20;;;;;;;;;;;;;;;21.78;50.32;168229.50;6293127;22;19923;-93
2022/03/31 02:36:46;;;;;;;;;;;;;;;21.84;50.19;168243.34;6302925;22;19976;-93
2022/03/31 02:39:13;;;;;;;;;;;;;;;21.83;50.17;168240.63;6294209;22;19919;-92
2022/03/31 02:41:40;;;;;;;;;;;;;;;21.83;50.51;168241.97;6305849;22;19923;-93
2022/03/31 02:44:06;;;;;;;;;;;;;;;21.81;50.35;168236.44;6304630;22;19923;-92
2022/03/31 02:46:33;;;;;;;;;;;;;;;21.83;50.54;168241.97;6300710;22;19923;-93
2022/03/31 02:48:59;;;;;;;;;;;;;;;21.83;50.60;168240.63;6310460;22;19942;-93
2022/03/31 02:51:26;;;;;;;;;;;;;;;21.81;50.55;168236.44;6298753;22;19923;-93
2022/03/31 02:56:38;;;;;;;;;;;;;;;21.81;50.53;168236.44;6297995;22;19918;-92
2022/03/31 02:59:07;;;;;;;;;;;;;;;21.83;50.37;168240.63;6304229;22;19934;-92
2022/03/31 03:01:33;;;;;;;;;;;;;;;21.83;50.51;168240.63;6302604;22;19933;-92
2022/03/31 03:04:01;;;;;;;;;;;;;;;21.83;50.38;168240.63;6287966;22;19964;-93
2022/03/31 03:06:27;;;;;;;;;;;;;;;21.83;50.52;168240.63;6303988;22;19923;-93
2022/03/31 03:08:55;;;;;;;;;;;;;;;21.78;50.61;168229.50;6289584;22;19923;-93
2022/03/31 03:11:22;;;;;;;;;;;;;;;21.79;50.70;168232.28;6300945;22;20183;-93
2022/03/31 03:13:49;;;;;;;;;;;;;;;21.79;50.54;168230.88;6301760;22;19926;-92
2022/03/31 03:16:16;;;;;;;;;;;;;;;21.78;50.50;168229.50;6290548;22;19927;-92
2022/03/31 03:18:43;;;;;;;;;;;;;;;21.79;50.48;168232.28;6302153;22;20026;-92
2022/03/31 03:21:09;;;;;;;;;;;;;;;21.79;50.66;168232.28;6290714;22;19926;-93
2022/03/31 03:23:37;;;;;;;;;;;;;;;21.79;50.54;168230.88;6300761;22;19973;-92
2022/03/31 03:26:04;;;;;;;;;;;;;;;21.78;50.69;168228.13;6291065;22;19930;-92
2022/03/31 03:28:31;;;;;;;;;;;;;;;21.78;50.73;168229.50;6299333;22;20230;-93
2022/03/31 03:30:57;;;;;;;;;;;;;;;21.79;50.77;168230.88;6301842;22;20335;-93
2022/03/31 03:33:24;;;;;;;;;;;;;;;21.80;50.75;168235.03;6289726;22;19938;-93
2022/03/31 03:35:51;;;;;;;;;;;;;;;21.81;50.51;168236.44;6301292;22;19926;-93
2022/03/31 03:38:17;;;;;;;;;;;;;;;21.81;50.60;168236.44;6291548;22;19977;-94
2022/03/31 03:40:44;;;;;;;;;;;;;;;21.79;50.67;168232.28;6301502;22;19926;-93
2022/03/31 03:43:10;;;;;;;;;;;;;;;21.81;50.67;168236.44;6295127;22;20167;-93
2022/03/31 03:45:38;;;;;;;;;;;;;;;21.81;50.75;168236.44;6294938;22;19919;-92
2022/03/31 03:48:06;;;;;;;;;;;;;;;21.78;50.77;168228.13;6301225;22;19954;-92
2022/03/31 03:50:34;;;;;;;;;;;;;;;21.79;50.96;168232.28;6291776;22;20300;-93
2022/03/31 03:53:03;;;;;;;;;;;;;;;21.77;51.00;168226.72;6301070;22;19919;-93
2022/03/31 03:55:30;;;;;;;;;;;;;;;21.76;51.29;168223.94;6288876;22;19919;-92
2022/03/31 03:57:57;;;;;;;;;;;;;;;21.70;51.47;168205.94;6299850;22;19919;-94
2022/03/31 04:00:23;;;;;;;;;;;;;;;21.78;51.21;168229.50;6300788;22;20154;-94
2022/03/31 04:02:50;;;;;;;;;;;;;;;21.81;51.04;168237.81;6290529;22;19923;-94
2022/03/31 04:05:17;;;;;;;;;;;;;;;21.73;51.20;168215.63;6299986;22;19929;-94
2022/03/31 04:07:44;;;;;;;;;;;;;;;21.74;51.30;168218.41;6289592;22;19923;-95
2022/03/31 04:10:11;;;;;;;;;;;;;;;21.72;51.04;168212.88;6300502;22;19919;-94
2022/03/31 04:12:38;;;;;;;;;;;;;;;21.70;51.03;168207.31;6301239;22;20281;-92
2022/03/31 04:15:06;;;;;;;;;;;;;;;21.77;50.92;168226.72;6289812;22;19985;-94
2022/03/31 04:17:32;;;;;;;;;;;;;;;21.78;50.70;168229.50;6301265;22;20331;-95
2022/03/31 04:19:59;;;;;;;;;;;;;;;21.83;50.63;168240.63;6288780;22;19923;-94
2022/03/31 04:22:26;;;;;;;;;;;;;;;21.83;50.71;168241.97;6302662;22;19919;-95
2022/03/31 04:24:52;;;;;;;;;;;;;;;21.83;50.50;168240.63;6292962;22;19923;-94
2022/03/31 04:27:19;;;;;;;;;;;;;;;21.83;50.17;168241.97;6302521;22;19919;-95
2022/03/31 04:29:45;;;;;;;;;;;;;;;21.80;50.33;168235.03;6301878;22;19927;-95
2022/03/31 04:32:12;;;;;;;;;;;;;;;21.84;50.04;168244.75;6289156;22;19930;-95
2022/03/31 04:34:39;;;;;;;;;;;;;;;21.80;50.05;168235.03;6303117;22;19927;-95
2022/03/31 04:37:06;;;;;;;;;;;;;;;21.81;50.03;168237.81;6294754;22;19923;-96
2022/03/31 04:39:33;;;;;;;;;;;;;;;21.83;49.83;168240.63;6305391;22;19923;-95
2022/03/31 04:41:59;;;;;;;;;;;;;;;21.81;49.71;168237.81;6308299;22;19984;-95
2022/03/31 04:44:29;;;;;;;;;;;;;;;21.80;49.55;168233.66;6298968;22;19928;-94
2022/03/31 04:46:56;;;;;;;;;;;;;;;21.80;49.78;168233.66;6303359;22;19923;-95
2022/03/31 04:49:22;;;;;;;;;;;;;;;21.81;49.73;168237.81;6290121;22;19923;-94
2022/03/31 04:51:49;;;;;;;;;;;;;;;21.78;49.59;168229.50;6302836;22;19930;-95
2022/03/31 04:54:15;;;;;;;;;;;;;;;21.78;49.51;168228.13;6293437;22;20349;-95
2022/03/31 04:56:42;;;;;;;;;;;;;;;21.77;49.51;168226.72;6302590;22;19923;-95
2022/03/31 04:59:09;;;;;;;;;;;;;;;21.77;49.48;168225.34;6304153;22;19945;-95
2022/03/31 05:01:37;;;;;;;;;;;;;;;21.76;49.26;168223.94;6295752;22;19923;-94
2022/03/31 05:04:04;;;;;;;;;;;;;;;21.73;49.26;168215.63;6304288;22;19919;-95
2022/03/31 05:06:31;;;;;;;;;;;;;;;21.74;49.31;168218.41;6289832;22;19989;-95
2022/03/31 05:08:58;;;;;;;;;;;;;;;21.74;49.10;168218.41;6306246;22;19962;-95
2022/03/31 05:11:24;;;;;;;;;;;;;;;21.72;49.27;168212.88;6303668;22;19930;-95
2022/03/31 05:13:51;;;;;;;;;;;;;;;21.72;49.27;168211.47;6297202;22;19922;-94
2022/03/31 05:16:18;;;;;;;;;;;;;;;21.72;49.02;168212.88;6308637;22;19929;-95
2022/03/31 05:18:45;;;;;;;;;;;;;;;21.71;49.11;168210.09;6298085;22;19927;-93
2022/03/31 05:21:15;;;;;;;;;;;;;;;21.71;48.92;168208.72;6306343;22;19926;-95
2022/03/31 05:23:41;;;;;;;;;;;;;;;21.70;48.93;168207.31;6295803;22;19937;-94
2022/03/31 05:26:08;;;;;;;;;;;;;;;21.71;48.82;168210.09;6302505;22;19929;-94
2022/03/31 05:28:34;;;;;;;;;;;;;;;21.70;48.81;168205.94;6302882;22;19981;-94
2022/03/31 05:31:01;;;;;;;;;;;;;;;21.71;48.72;168208.72;6289686;22;19949;-94
2022/03/31 05:33:28;;;;;;;;;;;;;;;21.70;48.83;168207.31;6303312;22;19921;-95
2022/03/31 05:35:55;;;;;;;;;;;;;;;21.71;48.87;168208.72;6290453;22;19928;-94
2022/03/31 05:38:21;;;;;;;;;;;;;;;21.71;48.70;168208.72;6304382;22;19993;-94
2022/03/31 05:40:48;;;;;;;;;;;;;;;21.70;48.55;168207.31;6303981;22;19922;-95
2022/03/31 05:43:15;;;;;;;;;;;;;;;21.71;48.56;168208.72;6290545;22;19927;-95
2022/03/31 05:45:41;;;;;;;;;;;;;;;21.71;48.39;168208.72;6303747;22;19972;-94
2022/03/31 05:48:08;;;;;;;;;;;;;;;21.71;48.35;168210.09;6292538;22;19946;-95
2022/03/31 05:50:35;;;;;;;;;;;;;;;21.71;48.53;168208.72;6302997;22;19923;-95
2022/03/31 05:53:02;;;;;;;;;;;;;;;21.70;48.51;168207.31;6292376;22;19922;-95
2022/03/31 05:55:28;;;;;;;;;;;;;;;21.70;48.48;168207.31;6302298;22;19926;-95
2022/03/31 05:57:55;;;;;;;;;;;;;;;21.70;48.48;168207.31;6305142;22;19923;-94
2022/03/31 06:00:22;;;;;;;;;;;;;;;21.69;48.17;168204.56;6292958;22;19919;-95
2022/03/31 06:02:49;;;;;;;;;;;;;;;21.70;48.17;168207.31;6302519;22;19930;-95
2022/03/31 06:05:17;;;;;;;;;;;;;;;21.69;48.05;168204.56;6293287;22;20271;-94
2022/03/31 06:07:44;;;;;;;;;;;;;;;21.69;48.19;168204.56;6303191;22;19964;-95
2022/03/31 06:10:10;;;;;;;;;;;;;;;21.69;48.16;168204.56;6297883;22;19952;-95
2022/03/31 06:12:38;;;;;;;;;;;;;;;21.69;48.18;168204.56;6296860;22;19919;-95
2022/03/31 06:15:06;;;;;;;;;;;;;;;21.69;48.19;168203.16;6303144;22;20331;-94
2022/03/31 06:17:39;;;;;;;;;;;;;;;21.69;48.01;168204.56;6293733;22;19929;-94
2022/03/31 06:20:06;;;;;;;;;;;;;;;21.69;47.85;168204.56;6303925;22;19927;-95
2022/03/31 06:22:33;;;;;;;;;;;;;;;21.67;47.85;168197.63;6293120;22;20237;-94
2022/03/31 06:25:00;;;;;;;;;;;;;;;21.67;48.04;168199.00;6303109;22;19977;-95
2022/03/31 06:27:26;;;;;;;;;;;;;;;21.67;47.79;168199.00;6301697;22;19925;-94
2022/03/31 06:29:53;;;;;;;;;;;;;;;21.67;47.85;168197.63;6294181;22;19923;-95
2022/03/31 06:32:20;;;;;;;;;;;;;;;21.66;47.85;168196.25;6302075;22;19923;-94
2022/03/31 06:34:47;;;;;;;;;;;;;;;21.66;47.80;168194.84;6290094;22;19968;-94
2022/03/31 06:37:13;;;;;;;;;;;;;;;21.63;48.04;168189.31;6303660;22;20301;-95
2022/03/31 06:39:41;;;;;;;;;;;;;;;21.64;47.78;168190.69;6291326;22;19950;-95
2022/03/31 06:42:08;;;;;;;;;;;;;;;21.64;47.76;168190.69;6302747;22;20318;-93
2022/03/31 06:44:35;;;;;;;;;;;;;;;21.63;47.69;168189.31;6301586;22;19927;-95
2022/03/31 06:47:02;;;;;;;;;;;;;;;21.63;47.67;168189.31;6291600;22;19930;-95
2022/03/31 06:49:28;;;;;;;;;;;;;;;21.64;47.83;168190.69;6301267;22;19927;-94
2022/03/31 06:51:55;;;;;;;;;;;;;;;21.62;47.67;168185.16;6294569;22;19990;-95
2022/03/31 06:54:22;;;;;;;;;;;;;;;21.60;47.63;168181.00;6303827;22;19929;-95
2022/03/31 06:56:49;;;;;;;;;;;;;;;21.62;47.72;168185.16;6295895;22;19941;-94
2022/03/31 06:59:16;;;;;;;;;;;;;;;21.61;47.59;168182.38;6301092;22;20309;-95
2022/03/31 07:01:45;;;;;;;;;;;;;;;21.61;47.76;168183.72;6302894;22;19934;-95
2022/03/31 07:04:12;;;;;;;;;;;;;;;21.61;47.76;168182.38;6296515;22;20207;-94
2022/03/31 07:06:38;;;;;;;;;;;;;;;21.61;47.50;168182.38;6304893;22;20175;-95
2022/03/31 07:09:06;;;;;;;;;;;;;;;21.61;47.63;168182.38;6291358;22;19923;-95
2022/03/31 07:11:33;;;;;;;;;;;;;;;21.62;47.42;168185.16;6304588;22;19923;-95
2022/03/31 07:14:05;;;;;;;;;;;;;;;21.59;47.65;168176.84;6303233;22;20292;-95
2022/03/31 07:16:32;;;;;;;;;;;;;;;21.60;47.31;168179.59;6292051;22;19919;-95
2022/03/31 07:18:59;;;;;;;;;;;;;;;21.59;47.52;168176.84;6301030;22;19919;-95
2022/03/31 07:21:31;;;;;;;;;;;;;;;21.59;47.33;168176.84;6290312;22;20001;-95
2022/03/31 07:23:57;;;;;;;;;;;;;;;21.59;47.25;168176.84;6302032;22;20213;-95
2022/03/31 07:26:24;;;;;;;;;;;;;;;21.58;47.58;168174.06;6292739;22;20281;-95
2022/03/31 07:28:51;;;;;;;;;;;;;;;21.57;47.17;168172.69;6301420;22;19919;-96
2022/03/31 07:31:18;;;;;;;;;;;;;;;21.58;47.41;168175.41;6302485;22;19964;-95
2022/03/31 07:33:45;;;;;;;;;;;;;;;21.59;47.34;168176.84;6292101;22;19923;-96
2022/03/31 07:36:12;;;;;;;;;;;;;;;21.56;47.20;168169.91;6303266;22;19926;-95
2022/03/31 07:38:40;;;;;;;;;;;;;;;21.57;47.21;168171.28;6292358;22;19922;-95
2022/03/31 07:41:06;;;;;;;;;;;;;;;21.57;47.01;168171.28;6303058;22;19923;-95
2022/03/31 07:43:34;;;;;;;;;;;;;;;21.57;47.27;168171.28;6293876;22;19923;-95
2022/03/31 07:46:00;;;;;;;;;;;;;;;21.57;46.94;168171.28;6301798;22;20297;-96
2022/03/31 07:48:27;;;;;;;;;;;;;;;21.56;47.07;168168.53;6303054;22;19923;-95
2022/03/31 07:50:56;;;;;;;;;;;;;;;21.56;47.07;168168.53;6293187;22;19919;-95
2022/03/31 07:53:23;;;;;;;;;;;;;;;21.56;46.86;168168.53;6303234;22;19923;-95
2022/03/31 07:55:50;;;;;;;;;;;;;;;21.55;47.09;168167.09;6292155;22;20207;-95
2022/03/31 07:58:17;;;;;;;;;;;;;;;21.56;46.85;168168.53;6300560;22;19923;-95
2022/03/31 08:00:50;;;;;;;;;;;;;;;21.55;46.76;168165.75;6303579;22;19968;-95
2022/03/31 08:03:18;;;;;;;;;;;;;;;21.55;46.75;168167.09;6297607;22;20383;-95
2022/03/31 08:05:45;;;;;;;;;;;;;;;21.55;46.93;168165.75;6304962;22;19961;-94
2022/03/31 08:08:12;;;;;;;;;;;;;;;21.55;46.79;168167.09;6288987;22;19922;-93
2022/03/31 08:10:39;;;;;;;;;;;;;;;21.55;46.90;168167.09;6308875;22;19967;-93
2022/03/31 08:13:06;;;;;;;;;;;;;;;21.54;46.98;168162.97;6293594;22;20026;-93
2022/03/31 08:15:34;;;;;;;;;;;;;;;21.54;46.73;168164.38;6303178;22;19939;-93
2022/03/31 08:18:01;;;;;;;;;;;;;;;21.54;46.94;168162.97;6302159;22;19922;-94
2022/03/31 08:20:27;;;;;;;;;;;;;;;21.53;47.01;168160.22;6292298;22;19922;-94
2022/03/31 08:22:55;;;;;;;;;;;;;;;21.52;46.85;168157.44;6301081;22;20301;-94
2022/03/31 08:25:21;;;;;;;;;;;;;;;21.52;46.62;168157.44;6292603;22;19929;-94
2022/03/31 08:27:48;;;;;;;;;;;;;;;21.52;46.65;168158.81;6301666;22;19926;-95
2022/03/31 08:30:19;;;;;;;;;;;;;;;21.50;46.67;168153.28;6292073;22;19923;-94
2022/03/31 08:32:46;;;;;;;;;;;;;;;21.43;46.97;168135.19;6300304;22;20196;-94
2022/03/31 08:35:14;;;;;;;;;;;;;;;21.40;46.84;168125.50;6302480;22;19942;-96
2022/03/31 08:37:41;;;;;;;;;;;;;;;21.43;46.66;168135.19;6297590;22;19992;-94
2022/03/31 08:40:09;;;;;;;;;;;;;;;21.48;46.61;168146.28;6302923;22;19976;-94
2022/03/31 08:42:35;;;;;;;;;;;;;;;21.43;46.67;168133.81;6290482;22;19930;-94
2022/03/31 08:45:02;;;;;;;;;;;;;;;21.38;46.65;168119.97;6300989;22;19923;-94
2022/03/31 08:47:30;;;;;;;;;;;;;;;21.40;46.52;168125.50;6298345;22;20006;-94
2022/03/31 08:50:14;;;;;;;;;;;;;;;21.44;46.65;168137.97;6302194;22;20286;-94
2022/03/31 08:52:41;;;;;;;;;;;;;;;21.37;46.60;168118.56;6303416;22;20001;-94
2022/03/31 08:55:08;;;;;;;;;;;;;;;21.35;46.45;168113.03;6291766;22;19931;-94
2022/03/31 08:57:48;;;;;;;;;;;;;;;21.38;46.38;168119.97;6302510;22;19923;-94
2022/03/31 09:00:16;;;;;;;;;;;;;;;21.41;46.49;168129.66;6289427;22;19922;-94
2022/03/31 09:02:55;;;;;;;;;;;;;;;21.36;46.47;168115.81;6303121;22;20021;-95
2022/03/31 09:05:23;;;;;;;;;;;;;;;21.39;46.61;168124.13;6292991;22;20238;-94
2022/03/31 09:07:53;;;;;;;;;;;;;;;21.40;46.36;168126.88;6301835;22;19919;-94
2022/03/31 09:10:34;;;;;;;;;;;;;;;21.40;46.38;168125.50;6304300;22;19923;-94
2022/03/31 09:13:02;;;;;;;;;;;;;;;21.41;46.32;168129.66;6291461;22;20138;-94
2022/03/31 09:15:31;;;;;;;;;;;;;;;21.40;46.41;168126.88;6307661;22;19996;-93
2022/03/31 09:17:58;;;;;;;;;;;;;;;21.44;46.11;168137.97;6310613;22;20300;-96
2022/03/31 09:20:36;;;;;;;;;;;;;;;21.45;46.26;168139.34;6313025;22;19938;-96
2022/03/31 09:23:03;;;;;;;;;;;;;;;21.44;46.12;168136.59;6309288;22;19930;-96
2022/03/31 09:25:29;;;;;;;;;;;;;;;21.45;46.30;168140.75;6311637;22;19982;-96
2022/03/31 09:27:58;;;;;;;;;;;;;;;21.42;46.12;168132.44;6311359;22;19926;-94
2022/03/31 09:30:25;;;;;;;;;;;;;;;21.43;46.11;168133.81;6299826;22;20557;-94
2022/03/31 09:32:54;;;;;;;;;;;;;;;21.34;46.30;168110.25;6310422;22;19919;-94
2022/03/31 09:35:25;;;;;;;;;;;;;;;21.28;46.11;168095.00;6299897;22;19945;-95
2022/03/31 09:37:54;;;;;;;;;;;;;;;21.32;46.23;168104.72;6308658;22;20302;-94
2022/03/31 09:40:21;;;;;;;;;;;;;;;21.34;46.23;168110.25;6299812;22;19927;-95
2022/03/31 09:42:58;;;;;;;;;;;;;;;21.29;46.19;168097.78;6309488;22;19923;-94
2022/03/31 09:45:39;;;;;;;;;;;;;;;21.25;46.18;168086.69;6310705;22;19923;-94
2022/03/31 09:48:15;;;;;;;;;;;;;;;21.29;46.09;168096.41;6303799;22;19927;-95
2022/03/31 09:50:42;;;;;;;;;;;;;;;21.33;46.07;168107.47;6309329;22;20235;-95
2022/03/31 09:53:10;;;;;;;;;;;;;;;21.26;46.10;168088.09;6298382;22;20004;-94
2022/03/31 09:55:43;;;;;;;;;;;;;;;21.22;46.30;168078.38;6308992;22;19970;-94
2022/03/31 09:58:17;;;;;;;;;;;;;;;21.28;46.22;168093.63;6298419;22;19923;-95
2022/03/31 10:00:47;;;;;;;;;;;;;;;21.30;45.98;168099.16;6305545;22;19950;-95
2022/03/31 10:03:14;;;;;;;;;;;;;;;21.25;46.09;168085.31;6297867;22;20171;-95
2022/03/31 10:05:42;;;;;;;;;;;;;;;21.22;46.08;168077.00;6305302;22;19919;-95
2022/03/31 10:08:12;;;;;;;;;;;;;;;21.29;46.13;168096.41;6308180;22;19922;-95
2022/03/31 10:10:41;;;;;;;;;;;;;;;21.31;45.90;168101.94;6296244;22;20001;-95
2022/03/31 10:13:30;;;;;;;;;;;;;;;21.32;45.90;168104.72;6306852;22;20193;-96
2022/03/31 10:16:04;;;;;;;;;;;;;;;21.29;46.06;168097.78;6296352;22;20010;-95
2022/03/31 10:18:31;;;;;;;;;;;;;;;21.32;45.90;168103.31;6303480;22;20329;-95
2022/03/31 10:20:58;;;;;;;;;;;;;;;21.31;46.12;168101.94;6293905;22;19923;-96
2022/03/31 10:26:25;;;;;;;;;;;;;;;21.30;46.03;168099.16;6305974;22;19922;-93
2022/03/31 10:28:54;;;;;;;;;;;;;;;21.29;45.88;168096.41;6302090;22;19919;-93
2022/03/31 10:31:21;;;;;;;;;;;;;;;21.31;45.78;168100.56;6302639;22;19923;-93
2022/03/31 10:33:52;;;;;;;;;;;;;;;21.31;46.09;168101.94;6290929;22;19926;-94
2022/03/31 10:36:21;;;;;;;;;;;;;;;21.31;46.02;168100.56;6304016;22;19984;-93
2022/03/31 10:38:52;;;;;;;;;;;;;;;21.29;45.79;168097.78;6293928;22;19946;-94
2022/03/31 10:41:18;;;;;;;;;;;;;;;21.30;46.00;168099.16;6303219;22;19994;-93
2022/03/31 10:43:49;;;;;;;;;;;;;;;21.29;45.67;168096.41;6301121;22;20323;-94
2022/03/31 10:46:17;;;;;;;;;;;;;;;21.29;45.87;168096.41;6300333;22;19934;-94
2022/03/31 10:48:51;;;;;;;;;;;;;;;21.28;45.68;168093.63;6304240;22;19926;-94
2022/03/31 10:51:18;;;;;;;;;;;;;;;21.28;45.71;168095.00;6292767;22;20474;-94
2022/03/31 10:53:48;;;;;;;;;;;;;;;21.27;45.68;168090.84;6302909;22;20288;-94
2022/03/31 10:56:25;;;;;;;;;;;;;;;21.27;45.82;168090.84;6290067;22;19994;-93
2022/03/31 10:58:53;;;;;;;;;;;;;;;21.27;45.70;168090.84;6303338;22;19941;-95
2022/03/31 11:01:20;;;;;;;;;;;;;;;21.28;45.61;168095.00;6297723;22;19919;-94
2022/03/31 11:03:50;;;;;;;;;;;;;;;21.28;45.72;168095.00;6303333;22;19927;-95
2022/03/31 11:06:18;;;;;;;;;;;;;;;21.27;45.59;168090.84;6313138;22;20238;-95
2022/03/31 11:08:46;;;;;;;;;;;;;;;21.26;45.58;168089.47;6290594;22;20339;-94
2022/03/31 11:11:23;;;;;;;;;;;;;;;21.25;45.78;168086.69;6303481;22;19934;-95
2022/03/31 11:13:50;;;;;;;;;;;;;;;21.24;45.80;168083.94;6298517;22;19926;-96
2022/03/31 11:16:17;;;;;;;;;;;;;;;21.24;45.65;168082.53;6304674;22;19945;-95
2022/03/31 11:18:56;;;;;;;;;;;;;;;21.26;45.83;168089.47;6307039;22;19918;-96
2022/03/31 11:21:23;;;;;;;;;;;;;;;21.33;45.69;168107.47;6308181;22;19919;-94
2022/03/31 11:23:50;;;;;;;;;;;;;;;21.29;45.49;168097.78;6304044;22;19923;-93
2022/03/31 11:26:27;;;;;;;;;;;;;;;21.26;45.47;168089.47;6292855;22;19946;-94
2022/03/31 11:28:53;;;;;;;;;;;;;;;21.26;45.60;168088.09;6301344;22;19923;-94
2022/03/31 11:31:20;;;;;;;;;;;;;;;21.24;45.94;168082.53;6287142;22;19919;-94
2022/03/31 11:33:47;;;;;;;;;;;;;;;21.25;45.86;168085.31;6300867;22;19918;-94
2022/03/31 11:36:17;;;;;;;;;;;;;;;21.23;45.74;168079.78;6296965;22;19933;-94
2022/03/31 11:38:57;;;;;;;;;;;;;;;21.25;45.70;168085.31;6301604;22;20186;-94
2022/03/31 11:41:24;;;;;;;;;;;;;;;21.23;45.65;168079.78;6301437;22;19922;-94
2022/03/31 11:44:11;;;;;;;;;;;;;;;21.25;45.75;168085.31;6286914;22;20182;-94
2022/03/31 11:46:41;;;;;;;;;;;;;;;21.24;45.87;168082.53;6301785;22;20206;-94
2022/03/31 11:49:17;;;;;;;;;;;;;;;21.24;45.57;168082.53;6293566;22;19927;-94
2022/03/31 11:51:50;;;;;;;;;;;;;;;21.24;45.68;168082.53;6301808;22;20270;-94
2022/03/31 11:54:17;;;;;;;;;;;;;;;21.23;45.88;168079.78;6291466;22;19930;-94
2022/03/31 11:56:44;;;;;;;;;;;;;;;21.24;45.65;168082.53;6302273;22;19923;-94
2022/03/31 11:59:12;;;;;;;;;;;;;;;21.19;45.67;168068.69;6304111;22;19925;-95
2022/03/31 12:01:43;;;;;;;;;;;;;;;21.29;45.68;168096.41;6294321;22;19929;-94
2022/03/31 12:04:20;;;;;;;;;;;;;;;21.18;45.57;168065.91;6303293;22;19968;-94
2022/03/31 12:06:51;;;;;;;;;;;;;;;21.16;45.61;168061.75;6292447;22;19919;-94
2022/03/31 12:09:18;;;;;;;;;;;;;;;21.24;45.64;168082.53;6301841;22;19939;-94
2022/03/31 12:11:46;;;;;;;;;;;;;;;21.21;45.59;168075.59;6292897;22;20152;-94
2022/03/31 12:14:15;;;;;;;;;;;;;;;21.14;45.51;168054.81;6302934;22;19990;-94
2022/03/31 12:16:46;;;;;;;;;;;;;;;21.13;45.40;168053.44;6304284;22;19919;-94
2022/03/31 12:19:14;;;;;;;;;;;;;;;21.23;45.64;168081.16;6294677;22;19919;-95
2022/03/31 12:21:47;;;;;;;;;;;;;;;21.23;45.49;168079.78;6302142;22;20006;-96
2022/03/31 12:24:14;;;;;;;;;;;;;;;21.14;45.53;168054.81;6290390;22;20278;-96
2022/03/31 12:26:53;;;;;;;;;;;;;;;21.13;45.54;168052.06;6302989;22;19976;-95
2022/03/31 12:29:20;;;;;;;;;;;;;;;21.21;45.44;168074.22;6293168;22;19994;-96
2022/03/31 12:31:48;;;;;;;;;;;;;;;21.21;45.53;168074.22;6302574;22;19918;-96
2022/03/31 12:34:15;;;;;;;;;;;;;;;21.12;45.61;168050.66;6301957;22;19919;-96
2022/03/31 12:36:42;;;;;;;;;;;;;;;21.10;45.42;168046.50;6292431;22;20328;-95
2022/03/31 12:39:09;;;;;;;;;;;;;;;21.19;45.37;168068.69;6303016;22;19919;-96
2022/03/31 12:41:37;;;;;;;;;;;;;;;21.21;45.46;168075.59;6300574;22;19925;-96
2022/03/31 12:44:17;;;;;;;;;;;;;;;21.11;45.42;168049.28;6309092;22;19919;-96
2022/03/31 12:46:43;;;;;;;;;;;;;;;21.06;45.76;168034.03;6305348;22;19922;-96
2022/03/31 12:49:17;;;;;;;;;;;;;;;21.19;45.33;168070.06;6311747;22;19918;-96